Time;durP1;ratioP1;P1;durP2;ratioP2;P2;SDS_P1;SDS_P2;PMS_P1;PMS_P2;Temp;Humidity;BMP_temperature;BMP_pressure;BME280_temperature;BME280_humidity;BME280_pressure;Samples;Min_cycle;Max_cycle;Signal;HPM_P1;HPM_P2
2021/12/13 00:00:06;;;;;;;67.07;33.33;;;;;;;8.69;100.00;102346.72;5161913;28;20117;-66
2021/12/13 00:02:46;;;;;;;94.15;37.17;;;;;;;8.64;100.00;102345.09;5171370;28;20042;-66
2021/12/13 00:05:35;;;;;;;84.95;37.15;;;;;;;8.67;100.00;102340.56;5163472;28;20498;-66
2021/12/13 00:08:11;;;;;;;136.75;42.35;;;;;;;8.62;100.00;102346.09;5163036;28;20030;-66
2021/12/13 00:10:50;;;;;;;68.78;34.40;;;;;;;8.64;100.00;102339.78;5164112;28;20396;-66
2021/12/13 00:13:34;;;;;;;73.20;33.67;;;;;;;8.59;100.00;102338.25;5161973;28;20039;-66
2021/12/13 00:16:07;;;;;;;66.80;34.22;;;;;;;8.62;100.00;102344.31;5163971;28;20785;-66
2021/12/13 00:18:46;;;;;;;77.60;35.97;;;;;;;8.57;100.00;102340.13;5167790;28;20030;-66
2021/12/13 00:21:27;;;;;;;92.32;37.65;;;;;;;8.52;100.00;102339.47;5168407;28;20093;-66
2021/12/13 00:24:02;;;;;;;81.32;36.22;;;;;;;8.53;100.00;102338.53;5169645;28;20034;-66
2021/12/13 00:26:39;;;;;;;58.25;31.85;;;;;;;8.56;100.00;102347.25;5176772;28;20110;-66
2021/12/13 00:29:14;;;;;;;64.65;31.77;;;;;;;8.56;100.00;102346.38;5165638;28;20027;-67
2021/12/13 00:32:17;;;;;;;64.18;31.98;;;;;;;8.53;100.00;102346.50;5167539;28;20043;-66
2021/12/13 00:34:59;;;;;;;64.05;31.20;;;;;;;8.52;100.00;102350.13;5162244;28;20109;-66
2021/12/13 00:37:43;;;;;;;73.65;32.20;;;;;;;8.53;100.00;102336.72;5172959;28;20666;-66
2021/12/13 00:40:19;;;;;;;71.13;33.15;;;;;;;8.49;100.00;102344.91;5179925;28;20058;-66
2021/12/13 00:42:58;;;;;;;60.15;30.67;;;;;;;8.47;100.00;102354.75;5167919;28;20420;-66
2021/12/13 00:45:34;;;;;;;63.67;32.70;;;;;;;8.47;100.00;102352.97;5168175;28;20165;-66
2021/12/13 00:48:08;;;;;;;63.83;31.05;;;;;;;8.46;100.00;102351.25;5174299;28;20381;-66
2021/12/13 00:50:46;;;;;;;75.72;34.00;;;;;;;8.50;100.00;102354.63;5178185;28;20512;-66
2021/12/13 00:53:20;;;;;;;61.45;29.27;;;;;;;8.49;100.00;102358.22;5169912;28;20602;-66
2021/12/13 00:55:52;;;;;;;64.78;33.28;;;;;;;8.46;100.00;102361.00;5167151;28;20077;-66
2021/12/13 00:58:24;;;;;;;75.72;33.88;;;;;;;8.45;100.00;102360.13;5179136;28;20344;-66
2021/12/13 01:01:02;;;;;;;72.32;33.10;;;;;;;8.42;100.00;102354.97;5170397;28;20344;-66
2021/12/13 01:03:51;;;;;;;67.30;31.98;;;;;;;8.47;100.00;102362.75;5172656;28;20097;-66
2021/12/13 01:06:57;;;;;;;60.13;31.13;;;;;;;8.50;100.00;102363.47;5175396;28;20034;-66
2021/12/13 01:09:50;;;;;;;73.68;33.80;;;;;;;8.44;100.00;102364.59;5168642;28;20022;-66
2021/12/13 01:12:23;;;;;;;76.82;33.63;;;;;;;8.38;100.00;102367.50;5171713;28;20459;-66
2021/12/13 01:15:02;;;;;;;71.75;32.83;;;;;;;8.44;100.00;102377.06;5171654;28;20081;-66
2021/12/13 01:18:00;;;;;;;65.68;30.00;;;;;;;8.48;100.00;102372.47;5171839;28;20480;-66
2021/12/13 01:20:55;;;;;;;62.90;31.23;;;;;;;8.36;100.00;102365.81;5171482;28;20049;-66
2021/12/13 01:23:48;;;;;;;71.90;33.95;;;;;;;8.33;100.00;102366.81;5175921;28;20109;-66
2021/12/13 01:29:03;;;;;;;84.93;34.83;;;;;;;8.31;100.00;102371.34;5174651;28;20473;-66
2021/12/13 01:31:43;;;;;;;71.28;32.00;;;;;;;8.33;100.00;102371.28;5184615;28;20058;-66
2021/12/13 01:34:16;;;;;;;65.22;31.73;;;;;;;8.32;100.00;102380.19;5174355;28;20066;-66
2021/12/13 01:37:03;;;;;;;79.97;33.95;;;;;;;8.23;100.00;102379.66;5176853;28;20035;-66
2021/12/13 01:39:40;;;;;;;72.00;33.33;;;;;;;8.28;100.00;102378.59;5168903;28;20109;-66
2021/12/13 01:42:19;;;;;;;79.03;34.67;;;;;;;8.29;100.00;102386.50;5174354;28;20082;-66
2021/12/13 01:45:01;;;;;;;71.20;31.38;;;;;;;8.29;100.00;102385.66;5173987;28;20035;-66
2021/12/13 01:47:42;;;;;;;70.97;31.77;;;;;;;8.32;100.00;102380.19;5173167;28;20039;-66
2021/12/13 01:50:19;;;;;;;70.60;31.98;;;;;;;8.28;100.00;102390.06;5170032;28;20030;-66
2021/12/13 01:52:53;;;;;;;91.82;35.80;;;;;;;8.25;100.00;102391.06;5168668;28;20039;-66
2021/12/13 01:55:36;;;;;;;97.75;36.35;;;;;;;8.23;100.00;102387.63;5172506;28;20034;-66
2021/12/13 02:01:10;;;;;;;71.63;31.80;;;;;;;8.21;100.00;102388.63;5175655;28;20039;-66
2021/12/13 02:04:05;;;;;;;66.85;32.63;;;;;;;8.30;100.00;102395.34;5171385;28;20282;-66
2021/12/13 02:06:39;;;;;;;;;;;;;;;8.29;100.00;102397.13;5170103;28;20051;-66
2021/12/13 02:09:13;;;;;;;83.97;35.60;;;;;;;8.19;100.00;102401.97;5174496;28;19925;-66
2021/12/13 02:11:48;;;;;;;76.20;34.22;;;;;;;8.23;100.00;102400.06;5174944;28;20040;-66
2021/12/13 02:14:24;;;;;;;72.82;33.25;;;;;;;8.20;100.00;102397.50;5171674;28;20567;-66
2021/12/13 02:17:10;;;;;;;79.07;35.67;;;;;;;8.22;100.00;102395.66;5171925;28;20058;-66
2021/12/13 02:19:47;;;;;;;86.47;35.63;;;;;;;8.24;100.00;102388.47;5178393;28;20038;-66
2021/12/13 02:22:24;;;;;;;86.28;36.25;;;;;;;8.17;100.00;102387.88;5182783;28;20034;-66
2021/12/13 02:25:03;;;;;;;87.68;37.17;;;;;;;8.18;100.00;102375.44;5173700;28;20041;-66
2021/12/13 02:27:38;;;;;;;82.43;35.20;;;;;;;8.16;100.00;102379.97;5173245;28;20050;-66
2021/12/13 02:30:39;;;;;;;79.63;35.08;;;;;;;8.20;100.00;102381.56;5182400;28;20043;-66
2021/12/13 02:33:14;;;;;;;88.57;36.85;;;;;;;8.16;100.00;102377.31;5126765;28;20057;-66
2021/12/13 02:35:52;;;;;;;96.10;37.38;;;;;;;8.20;100.00;102384.22;5168966;28;20121;-66
2021/12/13 02:38:25;;;;;;;85.05;34.95;;;;;;;8.17;100.00;102395.88;5174524;28;20772;-66
2021/12/13 02:40:57;;;;;;;116.15;40.25;;;;;;;8.15;100.00;102394.19;5172739;28;20081;-66
2021/12/13 02:43:33;;;;;;;89.78;36.70;;;;;;;8.16;100.00;102391.47;5173194;28;20485;-66
2021/12/13 02:46:06;;;;;;;77.90;33.58;;;;;;;8.17;100.00;102394.97;5180037;28;20125;-66
2021/12/13 02:48:42;;;;;;;89.55;37.20;;;;;;;8.13;100.00;102402.25;5173180;28;20464;-66
2021/12/13 02:51:27;;;;;;;91.68;36.90;;;;;;;8.13;100.00;102399.59;5173984;28;20424;-66
2021/12/13 02:54:29;;;;;;;70.10;32.17;;;;;;;8.18;100.00;102392.25;5173807;28;20031;-66
2021/12/13 02:57:11;;;;;;;105.65;36.88;;;;;;;8.08;100.00;102400.69;5172867;28;20034;-66
2021/12/13 02:59:47;;;;;;;94.22;36.10;;;;;;;8.05;100.00;102401.66;5173196;28;20042;-66
2021/12/13 03:02:20;;;;;;;85.57;36.28;;;;;;;8.10;100.00;102406.81;5178016;28;20472;-66
2021/12/13 03:04:52;;;;;;;80.03;33.97;;;;;;;8.10;100.00;102391.72;5172100;28;20220;-66
2021/12/13 03:07:33;;;;;;;79.38;36.63;;;;;;;8.07;100.00;102394.50;5170308;28;20027;-66
2021/12/13 03:10:13;;;;;;;74.97;33.83;;;;;;;8.10;100.00;102382.88;5169095;28;20504;-66
2021/12/13 03:12:45;;;;;;;91.03;37.65;;;;;;;8.04;100.00;102395.50;5173723;28;20034;-66
2021/12/13 03:15:20;;;;;;;75.47;34.63;;;;;;;8.08;100.00;102392.72;5173835;28;20393;-66
2021/12/13 03:18:11;;;;;;;87.88;36.33;;;;;;;8.11;100.00;102395.22;5167494;28;20551;-66
2021/12/13 03:21:11;;;;;;;82.13;34.80;;;;;;;8.09;100.00;102387.31;5161180;28;20488;-66
2021/12/13 03:24:01;;;;;;;115.28;38.63;;;;;;;8.03;100.00;102395.56;5170612;28;20373;-66
2021/12/13 03:27:03;;;;;;;87.85;35.45;;;;;;;8.10;100.00;102394.38;5174624;28;20198;-66
2021/12/13 03:29:53;;;;;;;85.28;34.05;;;;;;;8.05;100.00;102399.00;5172442;28;20054;-66
2021/12/13 03:32:34;;;;;;;89.38;35.20;;;;;;;8.02;100.00;102389.38;5173359;28;20078;-66
2021/12/13 03:35:15;;;;;;;88.30;35.78;;;;;;;7.98;100.00;102392.22;5168365;28;20111;-66
2021/12/13 03:37:57;;;;;;;81.78;33.55;;;;;;;8.02;100.00;102399.16;5168377;28;20093;-66
2021/12/13 03:40:31;;;;;;;82.45;33.38;;;;;;;7.99;100.00;102404.59;5173650;28;20405;-66
2021/12/13 03:43:11;;;;;;;76.13;33.17;;;;;;;8.01;100.00;102398.25;5163669;28;20022;-66
2021/12/13 03:45:47;;;;;;;85.60;35.38;;;;;;;7.98;100.00;102400.22;5172331;28;20026;-66
2021/12/13 03:48:23;;;;;;;91.47;35.60;;;;;;;7.98;100.00;102387.78;5171713;28;20027;-66
2021/12/13 03:50:58;;;;;;;84.50;35.35;;;;;;;7.98;100.00;102392.22;5173852;28;20053;-66
2021/12/13 03:53:33;;;;;;;92.57;35.40;;;;;;;7.94;100.00;102391.50;5174521;28;20502;-66
2021/12/13 03:56:09;;;;;;;;;;;;;;;8.05;100.00;102406.97;5167492;28;20027;-66
2021/12/13 03:58:47;;;;;;;124.07;38.13;;;;;;;7.94;100.00;102406.53;5172587;28;19914;-66
2021/12/13 04:01:21;;;;;;;84.63;35.45;;;;;;;7.96;100.00;102410.03;5177643;28;20092;-66
2021/12/13 04:03:54;;;;;;;;;;;;;;;8.02;100.00;102397.34;5173253;28;20452;-66
2021/12/13 04:06:26;;;;;;;88.55;33.45;;;;;;;7.94;100.00;102404.78;5170292;28;20380;-66
2021/12/13 04:08:59;;;;;;;107.88;36.25;;;;;;;7.93;100.00;102404.84;5168994;28;20033;-66
2021/12/13 04:11:30;;;;;;;80.68;34.95;;;;;;;7.98;100.00;102398.41;5169380;28;20045;-66
2021/12/13 04:14:10;;;;;;;71.63;31.38;;;;;;;8.01;100.00;102398.25;5164590;28;20424;-66
2021/12/13 04:17:19;;;;;;;88.72;34.75;;;;;;;7.95;100.00;102387.88;5166750;28;20019;-66
2021/12/13 04:19:57;;;;;;;91.18;34.50;;;;;;;7.92;100.00;102401.31;5171274;28;20031;-66
2021/12/13 04:22:34;;;;;;;86.45;35.58;;;;;;;7.91;100.00;102407.53;5173593;28;20041;-66
2021/12/13 04:25:10;;;;;;;83.53;34.10;;;;;;;7.96;100.00;102402.06;5169886;28;20393;-66
2021/12/13 04:27:48;;;;;;;109.05;35.20;;;;;;;7.90;100.00;102404.94;5170049;28;20077;-66
2021/12/13 04:30:24;;;;;;;79.63;33.85;;;;;;;7.96;100.00;102405.59;5168763;28;20530;-66
2021/12/13 04:33:01;;;;;;;76.00;31.75;;;;;;;7.98;100.00;102409.03;5171163;28;20449;-66
2021/12/13 04:35:35;;;;;;;86.45;34.70;;;;;;;7.87;100.00;102416.56;5171148;28;20034;-66
2021/12/13 04:38:07;;;;;;;;;;;;;;;7.98;100.00;102417.00;5172496;28;20575;-66
2021/12/13 04:40:40;;;;;;;72.10;29.73;;;;;;;7.92;100.00;102403.97;5171635;28;19918;-66
2021/12/13 04:43:15;;;;;;;88.03;33.22;;;;;;;7.85;100.00;102406.00;5169967;28;20018;-66
2021/12/13 04:45:55;;;;;;;76.45;30.50;;;;;;;7.86;100.00;102404.19;5167678;28;20128;-66
2021/12/13 04:48:32;;;;;;;71.05;31.45;;;;;;;7.83;100.00;102407.84;5169500;28;20145;-66
2021/12/13 04:51:09;;;;;;;75.53;31.73;;;;;;;7.88;100.00;102413.00;5168340;28;20137;-66
2021/12/13 04:53:47;;;;;;;77.47;30.58;;;;;;;7.85;100.00;102407.81;5166090;28;20035;-66
2021/12/13 04:56:24;;;;;;;76.40;30.55;;;;;;;7.85;100.00;102406.00;5176775;28;20026;-66
2021/12/13 04:58:59;;;;;;;72.95;29.35;;;;;;;7.89;100.00;102398.78;5170761;28;20023;-66
2021/12/13 05:01:30;;;;;;;66.93;29.42;;;;;;;7.89;100.00;102398.78;5174136;28;20464;-66
2021/12/13 05:04:05;;;;;;;76.30;30.55;;;;;;;7.82;100.00;102405.25;5173555;28;20025;-66
2021/12/13 05:06:39;;;;;;;83.22;31.05;;;;;;;7.80;100.00;102401.78;5174685;28;20117;-66
2021/12/13 05:09:16;;;;;;;62.70;27.92;;;;;;;7.86;100.00;102398.88;5172868;28;20153;-66
2021/12/13 05:11:52;;;;;;;64.20;28.80;;;;;;;7.85;100.00;102398.03;5176960;28;20034;-66
2021/12/13 05:14:39;;;;;;;67.70;28.42;;;;;;;7.83;100.00;102405.19;5176402;28;20121;-66
2021/12/13 05:17:23;;;;;;;64.63;28.95;;;;;;;7.85;100.00;102407.81;5165291;28;20117;-65
2021/12/13 05:20:10;;;;;;;70.43;29.48;;;;;;;7.81;100.00;102411.50;5165375;28;20037;-66
2021/12/13 05:22:47;;;;;;;64.90;28.33;;;;;;;7.77;100.00;102413.41;5165156;28;20465;-66
2021/12/13 05:25:36;;;;;;;75.15;28.80;;;;;;;7.79;100.00;102408.91;5167281;28;20030;-66
2021/12/13 05:28:18;;;;;;;59.45;27.55;;;;;;;7.82;100.00;102414.13;5172629;28;20145;-66
2021/12/13 05:31:01;;;;;;;64.32;26.70;;;;;;;7.83;100.00;102412.31;5172617;28;20078;-65
2021/12/13 05:33:35;;;;;;;62.55;27.73;;;;;;;7.82;100.00;102410.56;5174150;28;20053;-65
2021/12/13 05:36:19;;;;;;;61.95;27.92;;;;;;;7.81;100.00;102417.69;5171679;28;20034;-66
2021/12/13 05:39:12;;;;;;;61.58;27.13;;;;;;;7.80;100.00;102413.28;5168634;28;20118;-65
2021/12/13 05:41:53;;;;;;;76.38;28.40;;;;;;;7.78;100.00;102419.59;5171139;28;20034;-65
2021/12/13 05:44:31;;;;;;;65.50;28.23;;;;;;;7.72;100.00;102406.56;5173809;28;21273;-66
2021/12/13 05:47:16;;;;;;;65.50;27.52;;;;;;;7.74;100.00;102413.53;5166696;28;20510;-66
2021/12/13 05:49:48;;;;;;;61.70;27.25;;;;;;;7.73;100.00;102405.59;5170099;28;20037;-66
2021/12/13 05:52:24;;;;;;;59.85;27.40;;;;;;;7.71;100.00;102412.78;5168214;28;20042;-66
2021/12/13 05:54:58;;;;;;;55.65;26.00;;;;;;;7.78;100.00;102406.31;5168640;28;20023;-66
2021/12/13 05:57:34;;;;;;;51.83;23.70;;;;;;;7.75;100.00;102403.78;5168001;28;20053;-66
2021/12/13 06:00:08;;;;;;;57.05;24.98;;;;;;;7.79;100.00;102408.06;5167037;28;20026;-66
2021/12/13 06:02:58;;;;;;;58.72;25.52;;;;;;;7.74;100.00;102415.31;5167565;28;20031;-66
2021/12/13 06:05:35;;;;;;;60.17;25.95;;;;;;;7.72;100.00;102431.31;5167234;28;20092;-66
2021/12/13 06:08:21;;;;;;;52.20;23.80;;;;;;;7.76;100.00;102418.78;5165886;28;20040;-65
2021/12/13 06:10:57;;;;;;;51.22;24.00;;;;;;;7.72;100.00;102417.19;5167856;28;20453;-66
2021/12/13 06:13:46;;;;;;;46.67;22.80;;;;;;;7.75;100.00;102417.06;5165618;28;20030;-66
2021/12/13 06:16:18;;;;;;;49.60;23.02;;;;;;;7.78;100.00;102425.75;5166371;28;20035;-66
2021/12/13 06:19:11;;;;;;;58.05;23.05;;;;;;;7.73;100.00;102414.47;5166631;28;20093;-66
2021/12/13 06:22:03;;;;;;;55.25;24.83;;;;;;;7.72;100.00;102428.66;5162573;28;20407;-66
2021/12/13 06:25:00;;;;;;;46.42;21.25;;;;;;;7.75;100.00;102438.31;5163957;28;20027;-65
2021/12/13 06:27:41;;;;;;;48.22;21.63;;;;;;;7.75;100.00;102428.56;5153785;28;20044;-65
2021/12/13 06:30:21;;;;;;;44.60;21.25;;;;;;;7.75;100.00;102438.31;5166590;28;20118;-66
2021/12/13 06:32:59;;;;;;;48.50;21.90;;;;;;;7.73;100.00;102441.03;5167660;28;20073;-65
2021/12/13 06:35:44;;;;;;;44.60;22.17;;;;;;;7.68;100.00;102437.69;5164437;28;21038;-66
2021/12/13 06:38:44;;;;;;;46.15;21.13;;;;;;;7.73;100.00;102440.16;5164686;28;20031;-65
2021/12/13 06:41:26;;;;;;;50.65;21.38;;;;;;;7.64;100.00;102438.72;5166457;28;20511;-65
2021/12/13 06:44:21;;;;;;;43.90;20.92;;;;;;;7.70;100.00;102441.16;5169577;28;20480;-65
2021/12/13 06:47:07;;;;;;;43.22;20.30;;;;;;;7.72;100.00;102447.25;5162036;28;20487;-65
2021/12/13 06:49:44;;;;;;;45.20;20.52;;;;;;;7.64;100.00;102444.91;5165011;28;20082;-65
2021/12/13 06:52:16;;;;;;;41.85;20.15;;;;;;;7.65;100.00;102444.00;5164093;28;20035;-66
2021/12/13 06:54:55;;;;;;;47.20;20.60;;;;;;;7.67;100.00;102443.94;5173174;28;20030;-66
2021/12/13 06:57:29;;;;;;;43.13;20.17;;;;;;;7.64;100.00;102457.31;5169893;28;20101;-66
2021/12/13 07:00:28;;;;;;;38.78;19.30;;;;;;;7.67;100.00;102451.91;5168799;28;20038;-66
2021/12/13 07:03:06;;;;;;;43.08;19.55;;;;;;;7.64;100.00;102465.28;5163992;28;20026;-66
2021/12/13 07:05:45;;;;;;;40.35;19.50;;;;;;;7.65;100.00;102462.59;5170669;28;20093;-65
2021/12/13 07:08:19;;;;;;;43.45;20.30;;;;;;;7.65;100.00;102459.94;5170127;28;20041;-65
2021/12/13 07:10:56;;;;;;;38.17;19.77;;;;;;;7.66;100.00;102456.34;5166170;28;20040;-66
2021/12/13 07:13:39;;;;;;;39.35;19.27;;;;;;;7.65;100.00;102459.94;5168649;28;20389;-66
2021/12/13 07:16:16;;;;;;;41.03;19.45;;;;;;;7.61;100.00;102463.63;5165371;28;20341;-65
2021/12/13 07:19:02;;;;;;;41.00;19.13;;;;;;;7.64;100.00;102458.19;5163051;28;20030;-66
2021/12/13 07:21:40;;;;;;;43.88;19.08;;;;;;;7.58;100.00;102460.22;5171292;28;20034;-65
2021/12/13 07:24:15;;;;;;;42.33;19.13;;;;;;;7.64;100.00;102465.28;5166509;28;20113;-65
2021/12/13 07:26:56;;;;;;;45.30;19.95;;;;;;;7.60;100.00;102467.19;5171206;28;20034;-66
2021/12/13 07:29:29;;;;;;;40.25;19.27;;;;;;;7.66;100.00;102474.94;5166556;28;20412;-66
2021/12/13 07:32:10;;;;;;;40.70;19.57;;;;;;;7.63;100.00;102471.53;5171661;28;20098;-65
2021/12/13 07:34:51;;;;;;;39.97;19.08;;;;;;;7.64;100.00;102473.25;5165976;28;20478;-65
2021/12/13 07:37:34;;;;;;;45.58;20.17;;;;;;;7.61;100.00;102476.03;5159480;28;20169;-66
2021/12/13 07:40:27;;;;;;;41.58;19.13;;;;;;;7.61;100.00;102479.56;5169735;28;20577;-66
2021/12/13 07:43:01;;;;;;;43.97;19.80;;;;;;;7.60;100.00;102476.97;5163435;28;20030;-66
2021/12/13 07:45:57;;;;;;;43.22;19.88;;;;;;;7.63;100.00;102477.72;5159261;28;20815;-66
2021/12/13 07:48:35;;;;;;;41.00;19.00;;;;;;;7.61;100.00;102476.91;5162393;28;20035;-66
2021/12/13 07:51:16;;;;;;;46.10;20.73;;;;;;;7.61;100.00;102484.88;5169527;28;20078;-65
2021/12/13 07:53:58;;;;;;;47.72;20.08;;;;;;;7.59;100.00;102491.16;5167029;28;20026;-65
2021/12/13 07:56:33;;;;;;;41.55;19.38;;;;;;;7.67;100.00;102494.41;5169453;28;20041;-65
2021/12/13 07:59:06;;;;;;;45.95;20.48;;;;;;;7.63;100.00;102500.75;5168366;28;20392;-65
2021/12/13 08:02:05;;;;;;;39.15;18.70;;;;;;;7.71;100.00;102500.44;5164569;28;20551;-65
2021/12/13 08:04:44;;;;;;;39.80;19.13;;;;;;;7.69;100.00;102502.31;5128624;28;20049;-66
2021/12/13 08:07:20;;;;;;;43.42;19.60;;;;;;;7.70;100.00;102496.94;5163721;28;20497;-65
2021/12/13 08:09:57;;;;;;;46.75;19.83;;;;;;;7.70;100.00;102488.97;5163226;28;20093;-65
2021/12/13 08:12:48;;;;;;;39.75;18.98;;;;;;;7.73;100.00;102493.28;5162190;28;20033;-65
2021/12/13 08:15:35;;;;;;;37.13;17.98;;;;;;;7.73;100.00;102494.19;5147811;28;20066;-65
2021/12/13 08:18:24;;;;;;;38.00;18.77;;;;;;;7.74;100.00;102495.03;5163038;28;20042;-65
2021/12/13 08:20:58;;;;;;;40.72;20.10;;;;;;;7.71;100.00;102503.09;5165265;28;20474;-66
2021/12/13 08:23:46;;;;;;;41.05;19.15;;;;;;;7.75;100.00;102504.75;5163403;28;20069;-65
2021/12/13 08:26:35;;;;;;;38.92;18.25;;;;;;;7.74;100.00;102505.66;5164986;28;20039;-65
2021/12/13 08:29:17;;;;;;;43.03;18.90;;;;;;;7.78;100.00;102499.31;5163496;28;20086;-65
2021/12/13 08:31:53;;;;;;;33.97;18.45;;;;;;;7.75;100.00;102496.78;5163839;28;20057;-65
2021/12/13 08:34:33;;;;;;;38.88;18.92;;;;;;;7.73;100.00;102493.28;5162553;28;20042;-65
2021/12/13 08:37:25;;;;;;;37.42;18.35;;;;;;;7.78;100.00;102497.50;5164486;28;20125;-65
2021/12/13 08:40:09;;;;;;;38.72;19.67;;;;;;;7.75;100.00;102500.28;5164124;28;20085;-65
2021/12/13 08:42:44;;;;;;;35.53;19.05;;;;;;;7.78;100.00;102499.31;5166751;28;20035;-65
2021/12/13 08:45:27;;;;;;;37.78;18.90;;;;;;;7.80;100.00;102500.97;5164356;28;20023;-65
2021/12/13 08:48:04;;;;;;;42.33;19.80;;;;;;;7.77;100.00;102505.56;5164073;28;20031;-65
2021/12/13 08:50:41;;;;;;;37.38;20.30;;;;;;;7.77;100.00;102497.59;5165296;28;20030;-65
2021/12/13 08:53:21;;;;;;;40.80;19.80;;;;;;;7.80;100.00;102505.41;5166518;28;20031;-65
2021/12/13 08:56:10;;;;;;;38.22;19.38;;;;;;;7.83;100.00;102492.88;5167384;28;20035;-65
2021/12/13 08:58:58;;;;;;;41.10;20.08;;;;;;;7.81;100.00;102505.38;5174508;28;20097;-65
2021/12/13 09:01:49;;;;;;;36.08;20.08;;;;;;;7.83;100.00;102511.50;5171791;28;20042;-65
2021/12/13 09:04:31;;;;;;;40.60;20.70;;;;;;;7.79;100.00;102506.38;5168760;28;20503;-65
2021/12/13 09:07:07;;;;;;;34.80;18.10;;;;;;;7.78;100.00;102494.84;5169878;28;20037;-65
2021/12/13 09:09:44;;;;;;;34.50;18.95;;;;;;;7.78;100.00;102507.28;5173797;28;20097;-65
2021/12/13 09:12:33;;;;;;;36.67;19.75;;;;;;;7.80;100.00;102516.91;5171536;28;20023;-65
2021/12/13 09:15:17;;;;;;;35.20;18.90;;;;;;;7.88;100.00;102511.34;5173777;28;20122;-65
2021/12/13 09:17:50;;;;;;;38.85;20.15;;;;;;;7.80;100.00;102516.91;5170092;28;20151;-65
2021/12/13 09:20:37;;;;;;;36.83;18.33;;;;;;;7.84;100.00;102512.34;5175501;28;20496;-65
2021/12/13 09:23:25;;;;;;;37.25;19.67;;;;;;;7.85;100.00;102509.63;5170469;28;20294;-65
2021/12/13 09:26:24;;;;;;;35.78;19.48;;;;;;;7.85;100.00;102519.41;5174510;28;20430;-65
2021/12/13 09:29:02;;;;;;;34.63;18.77;;;;;;;7.86;100.00;102521.13;5171340;28;20098;-65
2021/12/13 09:31:39;;;;;;;36.65;19.95;;;;;;;7.86;100.00;102526.44;5173390;28;20378;-65
2021/12/13 09:34:18;;;;;;;37.60;19.33;;;;;;;7.85;100.00;102527.38;5175823;28;20480;-65
2021/12/13 09:36:54;;;;;;;35.72;17.95;;;;;;;7.92;100.00;102536.84;5173895;28;20117;-65
2021/12/13 09:39:29;;;;;;;34.45;19.27;;;;;;;7.86;100.00;102547.69;5171911;28;20473;-65
2021/12/13 09:42:06;;;;;;;32.50;17.88;;;;;;;7.96;100.00;102554.41;5172892;28;20038;-65
2021/12/13 09:44:44;;;;;;;32.65;17.48;;;;;;;7.93;100.00;102553.66;5173953;28;20481;-65
2021/12/13 09:47:25;;;;;;;34.10;17.65;;;;;;;7.92;100.00;102555.47;5173528;28;20118;-65
2021/12/13 09:49:56;;;;;;;31.98;17.92;;;;;;;7.96;100.00;102570.38;5175703;28;20106;-65
2021/12/13 09:52:32;;;;;;;29.83;17.08;;;;;;;7.96;100.00;102569.50;5171512;28;20038;-65
2021/12/13 09:55:15;;;;;;;29.60;16.85;;;;;;;7.94;100.00;102580.19;5174541;28;20027;-65
2021/12/13 09:57:58;;;;;;;32.05;17.25;;;;;;;7.94;100.00;102590.81;5173366;28;20037;-65
2021/12/13 10:00:41;;;;;;;33.20;17.35;;;;;;;8.01;100.00;102584.31;5172579;28;20053;-65
2021/12/13 10:03:29;;;;;;;32.15;16.80;;;;;;;7.93;100.00;102586.41;5173614;28;20023;-65
2021/12/13 10:06:06;;;;;;;27.98;15.48;;;;;;;7.93;100.00;102586.41;5171662;28;20089;-65
2021/12/13 10:08:45;;;;;;;27.08;15.40;;;;;;;8.00;100.00;102584.41;5172911;28;20089;-65
2021/12/13 10:11:22;;;;;;;25.50;15.10;;;;;;;7.99;100.00;102583.53;5175217;28;20038;-65
2021/12/13 10:13:54;;;;;;;25.20;14.93;;;;;;;7.98;100.00;102580.94;5171874;28;20043;-65
2021/12/13 10:16:36;;;;;;;27.75;15.15;;;;;;;8.01;100.00;102576.34;5170933;28;20026;-65
2021/12/13 10:19:15;;;;;;;25.10;14.07;;;;;;;8.00;100.00;102571.97;5170342;28;20027;-65
2021/12/13 10:21:48;;;;;;;26.35;14.05;;;;;;;8.05;100.00;102570.03;5174208;28;20632;-65
2021/12/13 10:24:25;;;;;;;21.48;13.32;;;;;;;7.98;100.00;102565.84;5172758;28;20380;-65
2021/12/13 10:27:00;;;;;;;23.67;13.32;;;;;;;8.01;100.00;102567.53;5170035;28;20121;-65
2021/12/13 10:29:33;;;;;;;21.98;12.75;;;;;;;8.02;100.00;102570.13;5173407;28;20069;-65
2021/12/13 10:32:13;;;;;;;21.65;12.90;;;;;;;8.10;100.00;102568.97;5171683;28;20461;-65
2021/12/13 10:34:49;;;;;;;19.58;12.48;;;;;;;8.09;100.00;102567.22;5171630;28;20126;-65
2021/12/13 10:37:27;;;;;;;19.58;11.85;;;;;;;8.07;100.00;102567.28;5172708;28;20038;-65
2021/12/13 10:40:10;;;;;;;19.58;11.65;;;;;;;8.02;100.00;102566.63;5171842;28;20030;-65
2021/12/13 10:42:49;;;;;;;19.67;11.75;;;;;;;8.07;100.00;102566.41;5173214;28;20081;-65
2021/12/13 10:45:25;;;;;;;20.13;12.05;;;;;;;8.07;100.00;102561.97;5174376;28;20397;-65
2021/12/13 10:48:00;;;;;;;17.48;11.48;;;;;;;8.05;100.00;102559.41;5174593;28;20035;-65
2021/12/13 10:50:37;;;;;;;19.33;11.55;;;;;;;8.04;100.00;102552.31;5173816;28;20034;-65
2021/12/13 10:53:12;;;;;;;18.77;10.90;;;;;;;8.10;100.00;102556.53;5169693;28;20045;-65
2021/12/13 10:55:48;;;;;;;17.40;11.10;;;;;;;8.06;100.00;102562.91;5172554;28;20056;-65
2021/12/13 10:58:22;;;;;;;17.63;10.65;;;;;;;8.13;100.00;102563.53;5172872;28;20113;-65
2021/12/13 11:00:59;;;;;;;16.25;10.27;;;;;;;8.11;100.00;102560.06;5167480;28;20089;-65
2021/12/13 11:03:35;;;;;;;18.00;11.13;;;;;;;8.11;100.00;102557.41;5174876;28;20033;-64
2021/12/13 11:06:08;;;;;;;19.90;11.10;;;;;;;8.18;100.00;102562.41;5172022;28;20409;-64
2021/12/13 11:08:42;;;;;;;22.33;11.60;;;;;;;8.12;100.00;102556.50;5169638;28;20371;-65
2021/12/13 11:11:20;;;;;;;16.60;11.07;;;;;;;8.17;100.00;102547.41;5167337;28;20306;-65
2021/12/13 11:13:54;;;;;;;16.48;10.20;;;;;;;8.15;100.00;102551.94;5175713;28;20034;-65
2021/12/13 11:16:34;;;;;;;15.75;10.57;;;;;;;8.15;100.00;102543.06;5167293;28;20034;-65
2021/12/13 11:19:11;;;;;;;18.77;11.40;;;;;;;8.13;100.00;102542.25;5170352;28;20768;-65
2021/12/13 11:21:47;;;;;;;16.95;10.63;;;;;;;8.22;100.00;102540.09;5169623;28;20034;-65
2021/12/13 11:24:24;;;;;;;16.67;10.55;;;;;;;8.19;100.00;102539.38;5172430;28;20030;-65
2021/12/13 11:27:01;;;;;;;17.75;10.60;;;;;;;8.21;100.00;102537.53;5172214;28;20141;-65
2021/12/13 11:29:32;;;;;;;15.63;10.43;;;;;;;8.17;100.00;102550.06;5171952;28;20027;-65
2021/12/13 11:32:35;;;;;;;16.08;9.95;;;;;;;8.25;100.00;102540.00;5170299;28;20378;-65
2021/12/13 11:35:06;;;;;;;15.52;10.30;;;;;;;8.20;100.00;102544.63;5172399;28;20057;-65
2021/12/13 11:38:10;;;;;;;15.15;10.35;;;;;;;8.28;100.00;102546.97;5172145;28;20492;-65
2021/12/13 11:40:59;;;;;;;16.42;11.13;;;;;;;8.26;100.00;102540.84;5173466;28;20046;-65
2021/12/13 11:43:49;;;;;;;16.33;10.18;;;;;;;8.24;100.00;102535.59;5170054;28;20050;-65
2021/12/13 11:46:27;;;;;;;14.07;10.25;;;;;;;8.26;100.00;102540.84;5171895;28;20039;-65
2021/12/13 11:49:36;;;;;;;15.93;10.10;;;;;;;8.31;100.00;102540.69;5172327;28;20432;-65
2021/12/13 11:52:45;;;;;;;14.90;9.90;;;;;;;8.35;100.00;102537.81;5173209;28;20456;-65
2021/12/13 11:55:37;;;;;;;13.70;9.07;;;;;;;8.27;100.00;102536.41;5171810;28;20118;-65
2021/12/13 11:58:35;;;;;;;14.65;10.05;;;;;;;8.32;100.00;102539.75;5172240;28;20041;-65
2021/12/13 12:01:06;;;;;;;15.10;9.77;;;;;;;8.25;100.00;102541.78;5175152;28;20640;-65
2021/12/13 12:04:22;;;;;;;16.40;9.05;;;;;;;8.25;100.00;102537.34;5170087;28;20031;-65
2021/12/13 12:07:08;;;;;;;14.65;9.38;;;;;;;8.25;100.00;102533.81;5168365;28;20043;-65
2021/12/13 12:10:10;;;;;;;16.23;9.90;;;;;;;8.25;100.00;102534.66;5170824;28;20093;-65
2021/12/13 12:12:55;;;;;;;15.10;10.23;;;;;;;8.25;100.00;102523.19;5171187;28;20158;-65
2021/12/13 12:15:27;;;;;;;14.32;9.13;;;;;;;8.21;100.00;102530.41;5170295;28;20066;-65